AUS weather

CLOSED Austin Robert Mueller Municipal
Texas, United States

Public forecast

Using degrees Fahrenheit for public forecast. Weather courtesy of forecast.io.

Closest aviation weather report (METAR) to Austin Robert Mueller Municipal

Closest report is Austin Bergstrom International Airport, 6.4 nm (11.9 km) SSE. Retrieved 2020/01/19 22:53 UTC (59 minutes ago):

KAUS 192253Z 03013KT 10SM FEW100 FEW250 14/M03 A3044 RMK AO2 SLP311 T01391033

Closest aviation forecast (TAF) to Austin Robert Mueller Municipal

Closest forecast is Austin Bergstrom International Airport, 6.4 nm (11.9 km) SSE. Retrieved 2020/01/19 18:24 UTC (5 hours ago):

TAF KAUS 191720Z 1918/2024 03014KT P6SM SKC FM200100 02005KT P6SM SKC FM201800 06005KT P6SM SCT080